METAR (acronimo di METeorological Air Report) è un messaggio meteo emesso nella maggior parte dei casi in ambito aeroportuale

LIPF - Ferrara, It
Distanza dalla Stazione: 8 km
Ultimo Aggiornamento: Lunedì 23 Settembre 2019 07:55 CEST
Bruma, Nuvoloso
Bruma, Nuvoloso
 Wind from calm
Vento: Calma
Temperatura: 14°C
Punto di Rugiada: 14°C
Umidità: 100%
Barometro: 1014 hPa
Condizioni: Bruma
Nuvole: Nuvoloso
Visibilità: 10 km
Nuvole nel Dettaglio: Nuvoloso 122 m
2019/09/23 05:55 LIPF 230555Z 00000KT 9999 BR OVC004 14/14 Q1014
LIPE - Bologna Borgo Panigale, It
Distanza dalla Stazione: 46 km
Ultimo Aggiornamento: Lunedì 23 Settembre 2019 08:20 CEST
Pioggia, Bruma, Prevalentemente Nuvoloso
Pioggia, Bruma, Prevalentemente Nuvoloso
 Wind from varies
Vento: variabile 2 km/h
Temperatura: 15°C
Punto di Rugiada: 14°C
Umidità: 94%
Barometro: 1014 hPa
Condizioni: Pioggia, Bruma
Nuvole: Prevalentemente Nuvoloso
Visibilità: 2 km
Nuvole nel Dettaglio: Prevalentemente Nuvoloso 122 m
Prevalentemente Nuvoloso 305 m
2019/09/23 06:20 LIPE 230620Z VRB01KT 2000 RA BR BKN004 BKN010 15/14 Q1014
LIMF - Torino Caselle, It
Distanza dalla Stazione: 320 km
Ultimo Aggiornamento: Lunedì 23 Settembre 2019 08:20 CEST
Bruma, Parzialmente Nuvoloso
Bruma, Parzialmente Nuvoloso
 Wind from varies
Vento: variabile 2 km/h
Temperatura: 14°C
Punto di Rugiada: 13°C
Umidità: 94%
Barometro: 1014 hPa
Condizioni: Bruma
Nuvole: Parzialmente Nuvoloso
Visibilità: 5 km
Nuvole nel Dettaglio: Qualche Nuvola 610 m
Parzialmente Nuvoloso 1524 m
2019/09/23 06:20 LIMF 230620Z VRB01KT 5000 BR FEW020 SCT050 14/13 Q1014
 
LIML - Milano Malpensa, It
Distanza dalla Stazione: 249 km
Ultimo Aggiornamento: Giovedì 19 Settembre 2019 10:50 CEST
Dati non Recenti
Parzialmente Nuvoloso
Parzialmente Nuvoloso
 Wind from varies
Vento: variabile 6 km/h
Temperatura: 16°C
Punto di Rugiada: 14°C
Umidità: 88%
Barometro: 1020 hPa
Nuvole: Parzialmente Nuvoloso
Visibilità: 10 km
Nuvole nel Dettaglio: Parzialmente Nuvoloso 305 m
Parzialmente Nuvoloso 1829 m
2019/09/19 08:50 LIML 190850Z VRB03KT 150V250 9999 SCT010 SCT060 16/14 Q1020 NOSIG
LIME - Bergamo Orio al Serio, It
Distanza dalla Stazione: 181 km
Ultimo Aggiornamento: Lunedì 23 Settembre 2019 08:20 CEST
Pioggia Leggera, Bruma, Nuvoloso
Pioggia Leggera, Bruma, Nuvoloso
 Wind from varies
Vento: variabile 4 km/h
Temperatura: 13°C
Punto di Rugiada: 13°C
Umidità: 100%
Barometro: 1014 hPa
Condizioni: Pioggia Leggera, Bruma
Nuvole: Nuvoloso
Visibilità: 2 km
Nuvole nel Dettaglio: Prevalentemente Nuvoloso 122 m
Nuvoloso 610 m
2019/09/23 06:20 LIME 230620Z VRB02KT 2000 -RA BR BKN004 OVC020 13/13 Q1014 RERA NOSIG
LIPZ - Venezia Tessera, It
Distanza dalla Stazione: 93 km
Ultimo Aggiornamento: Lunedì 23 Settembre 2019 08:20 CEST
Prevalentemente Nuvoloso
Prevalentemente Nuvoloso
 Wind from Nord-Ovest
Vento: Nord-Ovest 9 km/h
Temperatura: 16°C
Punto di Rugiada: 12°C
Umidità: 77%
Barometro: 1013 hPa
Nuvole: Prevalentemente Nuvoloso
Visibilità: 9 km
Nuvole nel Dettaglio: Parzialmente Nuvoloso 1219 m
Prevalentemente Nuvoloso 1463 m
2019/09/23 06:20 LIPZ 230620Z 31005KT 9000 SCT040 BKN048 16/12 Q1013 NOSIG
 
LIVT - Trieste, It
Distanza dalla Stazione: 179 km
Ultimo Aggiornamento: Lunedì 23 Settembre 2019 07:55 CEST

 Wind from Sud-Sud-Est
Vento: Sud-Sud-Est 11 km/h
Visibilità: 2 km
2019/09/23 05:55 LIVT 230555Z 15006KT 1500 - DZ BR OVC004 17/16 Q1013 RMK OVC QUK 1 QUL 0 VIS MAR 1500 M VIS MIN 1500
LIMJ - Genova, It
Distanza dalla Stazione: 229 km
Ultimo Aggiornamento: Lunedì 23 Settembre 2019 08:20 CEST
Prevalentemente Nuvoloso
Prevalentemente Nuvoloso
 Wind from Nord-Nord-Est
Vento: Nord-Nord-Est 11 km/h
Temperatura: 18°C
Punto di Rugiada: 13°C
Umidità: 73%
Barometro: 1012 hPa
Nuvole: Prevalentemente Nuvoloso
Visibilità: 10 km
Nuvole nel Dettaglio: Qualche Nuvola 610 m
Prevalentemente Nuvoloso 1067 m
2019/09/23 06:20 LIMJ 230620Z 03006KT 340V060 9999 FEW020 BKN035 18/13 Q1012
LIRQ - Firenze Amerigo Vespucci, It
Distanza dalla Stazione: 119 km
Ultimo Aggiornamento: Lunedì 23 Settembre 2019 08:20 CEST
Pioggia Leggera, Prevalentemente Nuvoloso
Pioggia Leggera, Prevalentemente Nuvoloso
 Wind from varies
Vento: variabile 4 km/h
Temperatura: 18°C
Punto di Rugiada: 18°C
Umidità: 100%
Barometro: 1013 hPa
Condizioni: Pioggia Leggera
Nuvole: Prevalentemente Nuvoloso
Visibilità: 10 km
Nuvole nel Dettaglio: Qualche Nuvola 213 m
Prevalentemente Nuvoloso 732 m
2019/09/23 06:20 LIRQ 230620Z VRB02KT 9999 -RA FEW007 BKN024 18/18 Q1013
 
LIPY - Ancona, It
Distanza dalla Stazione: 189 km
Ultimo Aggiornamento: Lunedì 23 Settembre 2019 07:50 CEST
Prevalentemente Nuvoloso
Prevalentemente Nuvoloso
 Wind from Sud-Ovest
Vento: Sud-Ovest 7 km/h
Temperatura: 18°C
Punto di Rugiada: 17°C
Umidità: 94%
Barometro: 1014 hPa
Nuvole: Prevalentemente Nuvoloso
Visibilità: 7 km
Nuvole nel Dettaglio: Prevalentemente Nuvoloso 610 m
2019/09/23 05:50 LIPY 230550Z 23004KT 7000 BKN020 18/17 Q1014
LIBP - Pescara, It
Distanza dalla Stazione: 333 km
Ultimo Aggiornamento: Lunedì 23 Settembre 2019 07:50 CEST
Qualche Nuvola
Qualche Nuvola
 Wind from Sud-Sud-Ovest
Vento: Sud-Sud-Ovest 7 km/h
Temperatura: 18°C
Punto di Rugiada: 17°C
Umidità: 94%
Barometro: 1014 hPa
Nuvole: Qualche Nuvola
Visibilità: 10 km
Nuvole nel Dettaglio: Qualche Nuvola 610 m
2019/09/23 05:50 LIBP 230550Z 20004KT 9999 FEW020 18/17 Q1014
LIRF - Roma-Fiumicino, It
Distanza dalla Stazione: 334 km
Ultimo Aggiornamento: Lunedì 23 Settembre 2019 08:20 CEST
Qualche Nuvola
Qualche Nuvola
 Wind from Est
Vento: Est 9 km/h
Temperatura: 19°C
Punto di Rugiada: 18°C
Umidità: 94%
Barometro: 1013 hPa
Nuvole: Qualche Nuvola
Visibilità: 10 km
Nuvole nel Dettaglio: Qualche Nuvola 1067 m
2019/09/23 06:20 LIRF 230620Z 08005KT 9999 FEW035 19/18 Q1013 NOSIG
 
LIRN - Napoli Capodichino, It
Distanza dalla Stazione: 494 km
Ultimo Aggiornamento: Lunedì 23 Settembre 2019 08:20 CEST
Prevalentemente Nuvoloso
Prevalentemente Nuvoloso
 Wind from Est
Vento: Est 6 km/h
Temperatura: 20°C
Punto di Rugiada: 19°C
Umidità: 94%
Barometro: 1014 hPa
Nuvole: Prevalentemente Nuvoloso
Visibilità: 10 km
Nuvole nel Dettaglio: Qualche Nuvola 457 m
Prevalentemente Nuvoloso 762 m
2019/09/23 06:20 LIRN 230620Z 08003KT 050V120 9999 FEW015 BKN025 20/19 Q1014 NOSIG
LIBD - Bari Palese, It
Distanza dalla Stazione: 594 km
Ultimo Aggiornamento: Lunedì 23 Settembre 2019 08:20 CEST
Qualche Nuvola
Qualche Nuvola
 Wind from Ovest-Sud-Ovest
Vento: Ovest-Sud-Ovest 20 km/h
Temperatura: 22°C
Punto di Rugiada: 19°C
Umidità: 83%
Barometro: 1012 hPa
Nuvole: Qualche Nuvola
Visibilità: 9 km
Nuvole nel Dettaglio: Qualche Nuvola 1219 m
2019/09/23 06:20 LIBD 230620Z 24011KT 9000 FEW040 22/19 Q1012 R25/210095
LIBG - Taranto Grottaglie, It
Distanza dalla Stazione: 670 km
Ultimo Aggiornamento: Lunedì 23 Settembre 2019 08:00 CEST
Pioggia Leggera, Qualche Nuvola
Pioggia Leggera, Qualche Nuvola
 Wind from Sud-Est
Vento: Sud-Est 17 km/h
Temperatura: 22°C
Punto di Rugiada: 22°C
Umidità: 100%
Barometro: 1012 hPa
Condizioni: Pioggia Leggera
Nuvole: Qualche Nuvola
Visibilità: 8 km
Nuvole nel Dettaglio: Qualche Nuvola 610 m
2019/09/23 06:00 LIBG 230600Z 14009KT 8000 -RA FEW020 22/22 Q1012
 
LICR - Reggio Calabria, It
Distanza dalla Stazione: 819 km
Ultimo Aggiornamento: Lunedì 23 Settembre 2019 07:50 CEST
Sereno
Sereno
 Wind from Nord-Est
Vento: Nord-Est 9 km/h
Temperatura: 24°C
Punto di Rugiada: 16°C
Umidità: 61%
Barometro: 1016 hPa
Condizioni: Sereno
Visibilità: superiore a 10 km
2019/09/23 05:50 LICR 230550Z 05005KT CAVOK 24/16 Q1016
LICJ - Palermo Punta Raisi, It
Distanza dalla Stazione: 762 km
Ultimo Aggiornamento: Lunedì 23 Settembre 2019 08:20 CEST
Qualche Nuvola
Qualche Nuvola
 Wind from Sud
Vento: Sud 19 km/h
Temperatura: 27°C
Heat Index: 29°C
Punto di Rugiada: 20°C
Umidità: 66%
Barometro: 1015 hPa
Nuvole: Qualche Nuvola
Visibilità: 10 km
Nuvole nel Dettaglio: Qualche Nuvola 1219 m
2019/09/23 06:20 LICJ 230620Z 18010KT 9999 FEW040 27/20 Q1015
LICC - Catania Fontanarossa, It
Distanza dalla Stazione: 866 km
Ultimo Aggiornamento: Lunedì 23 Settembre 2019 08:20 CEST
Sereno
Sereno
 Wind from Ovest
Vento: Ovest 19 km/h
Temperatura: 23°C
Punto di Rugiada: 21°C
Umidità: 89%
Barometro: 1017 hPa
Condizioni: Sereno
Visibilità: superiore a 10 km
2019/09/23 06:20 LICC 230620Z 27010KT CAVOK 23/21 Q1017
 
LIEE - Cagliari Elmas, It
Distanza dalla Stazione: 655 km
Ultimo Aggiornamento: Lunedì 23 Settembre 2019 08:20 CEST
Qualche Nuvola
Qualche Nuvola
 Wind from Nord
Vento: Nord 7 km/h
Temperatura: 22°C
Punto di Rugiada: 21°C
Umidità: 94%
Barometro: 1016 hPa
Nuvole: Qualche Nuvola
Visibilità: 10 km
Nuvole nel Dettaglio: Qualche Nuvola 610 m
2019/09/23 06:20 LIEE 230620Z 36004KT 320V040 9999 FEW020 22/21 Q1016
LIEO - Olbia, It
Distanza dalla Stazione: 463 km
Ultimo Aggiornamento: Lunedì 23 Settembre 2019 08:20 CEST
Qualche Nuvola
Qualche Nuvola
 Wind from Sud-Ovest
Vento: Sud-Ovest 19 km/h
Temperatura: 24°C
Punto di Rugiada: 20°C
Umidità: 78%
Barometro: 1014 hPa
Nuvole: Qualche Nuvola
Visibilità: 10 km
Nuvole nel Dettaglio: Qualche Nuvola 914 m
2019/09/23 06:20 LIEO 230620Z 22010KT 9999 FEW030 24/20 Q1014
LICG - Pantelleria, It
Distanza dalla Stazione: 893 km
Ultimo Aggiornamento: Lunedì 23 Settembre 2019 07:50 CEST
Prevalentemente Nuvoloso
Prevalentemente Nuvoloso
 Wind from Sud
Vento: Sud 13 km/h
Temperatura: 25°C
Punto di Rugiada: 25°C
Umidità: 100%
Barometro: 1017 hPa
Nuvole: Prevalentemente Nuvoloso
Visibilità: 6 km
Nuvole nel Dettaglio: Prevalentemente Nuvoloso 305 m
2019/09/23 05:50 LICG 230550Z 17007KT 6000 BKN010 25/25 Q1017